KCXO/CXO METAR and TAF weather

Enter ICAO airport designator
Station Type Date Time Source
KCXO METAR 2018/07/21 11:11 UTC NOAA

KCXO 211111Z 24007KT 10SM BKN012 26/26 A3000 RMK AO2 T02610256


Station Type Date Time Source
KCXO Decoded METAR 2018/07/21 11:11 UTC NOAA

LONE STAR EXECUTIVE AIRPORT, TX, United States (KCXO) 30-21N 95-25W 75M
Jul 21, 2018 - 07:11 AM EDT / 2018.07.21 1111 UTC
Wind: from the WSW (240 degrees) at 8 MPH (7 KT):0
Visibility: 10 mile(s):0
Sky conditions: mostly cloudy
Temperature: 79.0 F (26.1 C)
Dew Point: 78.1 F (25.6 C)
Relative Humidity: 97%
Pressure (altimeter): 30 in. Hg (1015 hPa)
ob: KCXO 211111Z 24007KT 10SM BKN012 26/26 A3000 RMK AO2 T02610256
cycle: 11

Station Type Date Time Source
KCXO TAF 2018/07/21 12:22 UTC NOAA

TAF KCXO 211120Z 2112/2212 24007KT P6SM BKN250
TEMPO 2112/2114 BKN012
FM212300 19007KT P6SM SKC
FM220900 24004KT P6SM BKN012


Example: see airport list